sensor_id;sensor_type;location;lat;lon;timestamp;pressure;altitude;pressure_sealevel;temperature;humidity
21781;BME280;52576;53.614;9.894;2023-08-07T00:01:58;100256.28;;;15.03;81.90
21781;BME280;52576;53.614;9.894;2023-08-07T00:04:01;100251.97;;;15.02;81.85
21781;BME280;52576;53.614;9.894;2023-08-07T00:06:04;100251.28;;;15.00;81.74
21781;BME280;52576;53.614;9.894;2023-08-07T00:08:07;100251.56;;;14.97;81.55
21781;BME280;52576;53.614;9.894;2023-08-07T00:10:11;100250.72;;;14.97;81.28
21781;BME280;52576;53.614;9.894;2023-08-07T00:12:15;100250.16;;;14.93;80.87
21781;BME280;52576;53.614;9.894;2023-08-07T00:14:18;100242.41;;;14.91;81.27
21781;BME280;52576;53.614;9.894;2023-08-07T00:16:21;100245.19;;;14.90;81.18
21781;BME280;52576;53.614;9.894;2023-08-07T00:18:23;100241.00;;;14.87;80.77
21781;BME280;52576;53.614;9.894;2023-08-07T00:20:26;100245.75;;;14.84;80.65
21781;BME280;52576;53.614;9.894;2023-08-07T00:22:29;100240.78;;;14.81;80.48
21781;BME280;52576;53.614;9.894;2023-08-07T00:24:32;100242.72;;;14.79;80.40
21781;BME280;52576;53.614;9.894;2023-08-07T00:26:36;100246.47;;;14.76;80.39
21781;BME280;52576;53.614;9.894;2023-08-07T00:28:39;100247.59;;;14.74;80.39
21781;BME280;52576;53.614;9.894;2023-08-07T00:30:43;100244.25;;;14.72;80.37
21781;BME280;52576;53.614;9.894;2023-08-07T00:32:46;100253.13;;;14.71;80.26
21781;BME280;52576;53.614;9.894;2023-08-07T00:34:49;100247.16;;;14.69;80.58
21781;BME280;52576;53.614;9.894;2023-08-07T00:36:52;100249.81;;;14.69;80.44
21781;BME280;52576;53.614;9.894;2023-08-07T00:38:54;100250.78;;;14.68;79.92
21781;BME280;52576;53.614;9.894;2023-08-07T00:40:58;100250.78;;;14.68;80.01
21781;BME280;52576;53.614;9.894;2023-08-07T00:43:03;100245.50;;;14.68;79.78
21781;BME280;52576;53.614;9.894;2023-08-07T00:45:07;100245.50;;;14.68;79.63
21781;BME280;52576;53.614;9.894;2023-08-07T00:47:10;100249.94;;;14.67;79.66
21781;BME280;52576;53.614;9.894;2023-08-07T00:49:14;100245.50;;;14.68;79.57
21781;BME280;52576;53.614;9.894;2023-08-07T00:51:17;100248.16;;;14.68;79.52
21781;BME280;52576;53.614;9.894;2023-08-07T00:53:20;100249.13;;;14.67;79.46
21781;BME280;52576;53.614;9.894;2023-08-07T00:55:24;100243.84;;;14.67;79.57
21781;BME280;52576;53.614;9.894;2023-08-07T00:57:27;100238.56;;;14.67;79.62
21781;BME280;52576;53.614;9.894;2023-08-07T00:59:32;100234.94;;;14.68;79.91
21781;BME280;52576;53.614;9.894;2023-08-07T01:01:35;100237.59;;;14.68;80.24
21781;BME280;52576;53.614;9.894;2023-08-07T01:03:40;100235.78;;;14.68;80.32
21781;BME280;52576;53.614;9.894;2023-08-07T01:05:43;100238.44;;;14.68;80.25
21781;BME280;52576;53.614;9.894;2023-08-07T01:07:46;100240.22;;;14.68;80.24
21781;BME280;52576;53.614;9.894;2023-08-07T01:09:50;100239.41;;;14.67;80.67
21781;BME280;52576;53.614;9.894;2023-08-07T01:11:57;100243.84;;;14.67;80.75
21781;BME280;52576;53.614;9.894;2023-08-07T01:14:10;100231.63;;;14.66;81.01
21781;BME280;52576;53.614;9.894;2023-08-07T01:16:20;100234.41;;;14.64;80.84
21781;BME280;52576;53.614;9.894;2023-08-07T01:18:25;100235.50;;;14.62;80.88
21781;BME280;52576;53.614;9.894;2023-08-07T01:20:29;100234.69;;;14.61;81.13
21781;BME280;52576;53.614;9.894;2023-08-07T01:22:34;100231.34;;;14.59;81.45
21781;BME280;52576;53.614;9.894;2023-08-07T01:24:39;100232.47;;;14.56;81.42
21781;BME280;52576;53.614;9.894;2023-08-07T01:26:45;100236.91;;;14.56;81.57
21781;BME280;52576;53.614;9.894;2023-08-07T01:28:54;100227.50;;;14.53;81.95
21781;BME280;52576;53.614;9.894;2023-08-07T01:31:03;100225.84;;;14.52;82.16
21781;BME280;52576;53.614;9.894;2023-08-07T01:33:10;100215.56;;;14.49;82.12
21781;BME280;52576;53.614;9.894;2023-08-07T01:35:16;100228.75;;;14.49;82.28
21781;BME280;52576;53.614;9.894;2023-08-07T01:37:20;100214.03;;;14.47;82.66
21781;BME280;52576;53.614;9.894;2023-08-07T01:39:26;100219.44;;;14.45;83.09
21781;BME280;52576;53.614;9.894;2023-08-07T01:41:30;100216.13;;;14.43;83.29
21781;BME280;52576;53.614;9.894;2023-08-07T01:43:33;100218.06;;;14.41;83.05
21781;BME280;52576;53.614;9.894;2023-08-07T01:45:37;100214.69;;;14.39;83.11
21781;BME280;52576;53.614;9.894;2023-08-07T01:47:42;100213.31;;;14.35;83.36
21781;BME280;52576;53.614;9.894;2023-08-07T01:49:45;100207.34;;;14.33;83.54
21781;BME280;52576;53.614;9.894;2023-08-07T01:51:48;100217.19;;;14.31;84.06
21781;BME280;52576;53.614;9.894;2023-08-07T01:53:51;100213.88;;;14.29;84.18
21781;BME280;52576;53.614;9.894;2023-08-07T01:55:56;100215.84;;;14.27;84.38
21781;BME280;52576;53.614;9.894;2023-08-07T01:57:59;100221.09;;;14.27;84.60
21781;BME280;52576;53.614;9.894;2023-08-07T02:00:02;100218.75;;;14.24;84.38
21781;BME280;52576;53.614;9.894;2023-08-07T02:02:15;100214.31;;;14.24;84.87
21781;BME280;52576;53.614;9.894;2023-08-07T02:04:18;100216.09;;;14.24;84.56
21781;BME280;52576;53.614;9.894;2023-08-07T02:06:22;100221.38;;;14.24;85.08
21781;BME280;52576;53.614;9.894;2023-08-07T02:08:26;100214.44;;;14.23;85.24
21781;BME280;52576;53.614;9.894;2023-08-07T02:10:29;100212.78;;;14.22;84.87
21781;BME280;52576;53.614;9.894;2023-08-07T02:12:34;100216.38;;;14.21;85.25
21781;BME280;52576;53.614;9.894;2023-08-07T02:14:37;100214.72;;;14.20;85.15
21781;BME280;52576;53.614;9.894;2023-08-07T02:16:40;100205.16;;;14.19;85.38
21781;BME280;52576;53.614;9.894;2023-08-07T02:18:43;100213.06;;;14.19;85.49
21781;BME280;52576;53.614;9.894;2023-08-07T02:20:47;100211.38;;;14.18;85.41
21781;BME280;52576;53.614;9.894;2023-08-07T02:22:50;100207.09;;;14.17;85.22
21781;BME280;52576;53.614;9.894;2023-08-07T02:24:54;100212.34;;;14.17;85.50
21781;BME280;52576;53.614;9.894;2023-08-07T02:26:56;100202.78;;;14.16;85.26
21781;BME280;52576;53.614;9.894;2023-08-07T02:29:00;100209.72;;;14.17;85.02
21781;BME280;52576;53.614;9.894;2023-08-07T02:31:06;100213.31;;;14.16;85.03
21781;BME280;52576;53.614;9.894;2023-08-07T02:33:09;100206.38;;;14.15;85.21
21781;BME280;52576;53.614;9.894;2023-08-07T02:35:12;100211.66;;;14.15;85.22
21781;BME280;52576;53.614;9.894;2023-08-07T02:37:15;100208.88;;;14.16;84.82
21781;BME280;52576;53.614;9.894;2023-08-07T02:39:18;100209.72;;;14.17;84.77
21781;BME280;52576;53.614;9.894;2023-08-07T02:41:20;100203.47;;;14.18;84.61
21781;BME280;52576;53.614;9.894;2023-08-07T02:43:24;100206.13;;;14.18;84.45
21781;BME280;52576;53.614;9.894;2023-08-07T02:45:29;100206.13;;;14.18;84.61
21781;BME280;52576;53.614;9.894;2023-08-07T02:47:33;100200.00;;;14.17;84.47
21781;BME280;52576;53.614;9.894;2023-08-07T02:49:36;100192.94;;;14.18;84.50
21781;BME280;52576;53.614;9.894;2023-08-07T02:51:39;100199.19;;;14.17;84.47
21781;BME280;52576;53.614;9.894;2023-08-07T02:53:42;100199.19;;;14.17;84.50
21781;BME280;52576;53.614;9.894;2023-08-07T02:55:46;100202.78;;;14.16;84.49
21781;BME280;52576;53.614;9.894;2023-08-07T02:57:49;100204.59;;;14.15;84.21
21781;BME280;52576;53.614;9.894;2023-08-07T02:59:52;100211.66;;;14.15;84.12
21781;BME280;52576;53.614;9.894;2023-08-07T03:01:57;100209.03;;;14.15;84.21
21781;BME280;52576;53.614;9.894;2023-08-07T03:04:00;100214.16;;;14.16;84.46
21781;BME280;52576;53.614;9.894;2023-08-07T03:06:03;100208.06;;;14.16;84.13
21781;BME280;52576;53.614;9.894;2023-08-07T03:08:06;100211.53;;;14.16;84.42
21781;BME280;52576;53.614;9.894;2023-08-07T03:10:09;100211.38;;;14.18;84.42
21781;BME280;52576;53.614;9.894;2023-08-07T03:12:13;100206.13;;;14.18;84.47
21781;BME280;52576;53.614;9.894;2023-08-07T03:14:17;100202.50;;;14.19;84.68
21781;BME280;52576;53.614;9.894;2023-08-07T03:16:19;100204.16;;;14.20;84.53
21781;BME280;52576;53.614;9.894;2023-08-07T03:18:23;100191.97;;;14.19;84.42
21781;BME280;52576;53.614;9.894;2023-08-07T03:20:26;100192.66;;;14.21;84.60
21781;BME280;52576;53.614;9.894;2023-08-07T03:22:29;100203.19;;;14.21;84.57
21781;BME280;52576;53.614;9.894;2023-08-07T03:24:32;100199.72;;;14.20;84.61
21781;BME280;52576;53.614;9.894;2023-08-07T03:26:35;100195.28;;;14.21;85.13
21781;BME280;52576;53.614;9.894;2023-08-07T03:28:39;100196.97;;;14.22;85.01
21781;BME280;52576;53.614;9.894;2023-08-07T03:30:41;100207.50;;;14.22;85.07
21781;BME280;52576;53.614;9.894;2023-08-07T03:32:48;100210.13;;;14.22;85.33
21781;BME280;52576;53.614;9.894;2023-08-07T03:34:53;100200.28;;;14.24;85.17
21781;BME280;52576;53.614;9.894;2023-08-07T03:36:57;100208.34;;;14.22;85.27
21781;BME280;52576;53.614;9.894;2023-08-07T03:39:01;100198.63;;;14.23;85.39
21781;BME280;52576;53.614;9.894;2023-08-07T03:41:04;100202.22;;;14.22;85.78
21781;BME280;52576;53.614;9.894;2023-08-07T03:43:07;100208.19;;;14.24;85.65
21781;BME280;52576;53.614;9.894;2023-08-07T03:45:10;100202.94;;;14.24;85.84
21781;BME280;52576;53.614;9.894;2023-08-07T03:47:13;100205.56;;;14.24;86.04
21781;BME280;52576;53.614;9.894;2023-08-07T03:49:17;100201.97;;;14.25;85.99
21781;BME280;52576;53.614;9.894;2023-08-07T03:51:21;100206.25;;;14.26;86.04
21781;BME280;52576;53.614;9.894;2023-08-07T03:53:27;100213.19;;;14.27;86.24
21781;BME280;52576;53.614;9.894;2023-08-07T03:55:29;100207.91;;;14.27;86.70
21781;BME280;52576;53.614;9.894;2023-08-07T03:57:32;100212.22;;;14.28;86.42
21781;BME280;52576;53.614;9.894;2023-08-07T03:59:36;100205.97;;;14.29;86.98
21781;BME280;52576;53.614;9.894;2023-08-07T04:01:40;100198.06;;;14.29;86.60
21781;BME280;52576;53.614;9.894;2023-08-07T04:03:43;100204.00;;;14.31;86.65
21781;BME280;52576;53.614;9.894;2023-08-07T04:05:46;100202.22;;;14.32;86.95
21781;BME280;52576;53.614;9.894;2023-08-07T04:07:50;100205.53;;;14.34;86.89
21781;BME280;52576;53.614;9.894;2023-08-07T04:09:53;100207.19;;;14.35;87.04
21781;BME280;52576;53.614;9.894;2023-08-07T04:11:56;100197.50;;;14.35;87.16
21781;BME280;52576;53.614;9.894;2023-08-07T04:13:59;100199.16;;;14.36;87.08
21781;BME280;52576;53.614;9.894;2023-08-07T04:16:03;100190.28;;;14.37;87.03
21781;BME280;52576;53.614;9.894;2023-08-07T04:18:07;100193.59;;;14.39;87.33
21781;BME280;52576;53.614;9.894;2023-08-07T04:20:09;100198.88;;;14.39;87.12
21781;BME280;52576;53.614;9.894;2023-08-07T04:22:13;100202.25;;;14.41;86.96
21781;BME280;52576;53.614;9.894;2023-08-07T04:24:17;100193.34;;;14.42;87.23
21781;BME280;52576;53.614;9.894;2023-08-07T04:26:20;100198.63;;;14.42;87.47
21781;BME280;52576;53.614;9.894;2023-08-07T04:28:23;100197.66;;;14.43;87.45
21781;BME280;52576;53.614;9.894;2023-08-07T04:30:25;100198.34;;;14.45;87.64
21781;BME280;52576;53.614;9.894;2023-08-07T04:32:28;100199.03;;;14.47;87.43
21781;BME280;52576;53.614;9.894;2023-08-07T04:34:31;100201.53;;;14.49;87.69
21781;BME280;52576;53.614;9.894;2023-08-07T04:36:34;100205.00;;;14.49;87.90
21781;BME280;52576;53.614;9.894;2023-08-07T04:38:37;100201.41;;;14.50;87.61
21781;BME280;52576;53.614;9.894;2023-08-07T04:40:45;100197.78;;;14.51;87.95
21781;BME280;52576;53.614;9.894;2023-08-07T04:42:48;100201.97;;;14.54;87.82
21781;BME280;52576;53.614;9.894;2023-08-07T04:44:52;100209.69;;;14.55;87.61
21781;BME280;52576;53.614;9.894;2023-08-07T04:46:55;100209.56;;;14.57;88.04
21781;BME280;52576;53.614;9.894;2023-08-07T04:48:59;100207.63;;;14.59;87.99
21781;BME280;52576;53.614;9.894;2023-08-07T04:51:02;100205.66;;;14.61;87.89
21781;BME280;52576;53.614;9.894;2023-08-07T04:53:05;100207.19;;;14.64;87.80
21781;BME280;52576;53.614;9.894;2023-08-07T04:55:08;100207.06;;;14.65;88.18
21781;BME280;52576;53.614;9.894;2023-08-07T04:57:13;100203.31;;;14.68;87.78
21781;BME280;52576;53.614;9.894;2023-08-07T04:59:16;100204.97;;;14.69;87.97
21781;BME280;52576;53.614;9.894;2023-08-07T05:01:19;100202.03;;;14.72;87.85
21781;BME280;52576;53.614;9.894;2023-08-07T05:03:21;100208.84;;;14.74;88.18
21781;BME280;52576;53.614;9.894;2023-08-07T05:05:24;100199.13;;;14.75;88.09
21781;BME280;52576;53.614;9.894;2023-08-07T05:07:27;100210.22;;;14.78;88.14
21781;BME280;52576;53.614;9.894;2023-08-07T05:09:30;100209.13;;;14.81;88.08
21781;BME280;52576;53.614;9.894;2023-08-07T05:11:33;100208.81;;;14.84;88.08
21781;BME280;52576;53.614;9.894;2023-08-07T05:13:38;100206.84;;;14.86;87.58
21781;BME280;52576;53.614;9.894;2023-08-07T05:15:41;100208.53;;;14.87;87.65
21781;BME280;52576;53.614;9.894;2023-08-07T05:17:44;100206.56;;;14.89;87.63
21781;BME280;52576;53.614;9.894;2023-08-07T05:19:46;100208.94;;;14.92;87.90
21781;BME280;52576;53.614;9.894;2023-08-07T05:21:49;100206.00;;;14.95;87.37
21781;BME280;52576;53.614;9.894;2023-08-07T05:23:52;100204.88;;;14.98;87.78
21781;BME280;52576;53.614;9.894;2023-08-07T05:25:57;100200.16;;;15.01;87.42
21781;BME280;52576;53.614;9.894;2023-08-07T05:28:00;100197.22;;;15.04;87.37
21781;BME280;52576;53.614;9.894;2023-08-07T05:30:05;100195.09;;;15.08;87.45
21781;BME280;52576;53.614;9.894;2023-08-07T05:32:09;100193.84;;;15.12;87.33
21781;BME280;52576;53.614;9.894;2023-08-07T05:34:12;100195.34;;;15.14;87.43
21781;BME280;52576;53.614;9.894;2023-08-07T05:36:15;100198.69;;;15.16;86.83
21781;BME280;52576;53.614;9.894;2023-08-07T05:38:18;100207.28;;;15.18;86.90
21781;BME280;52576;53.614;9.894;2023-08-07T05:40:21;100206.31;;;15.19;87.03
21781;BME280;52576;53.614;9.894;2023-08-07T05:42:24;100205.34;;;15.20;86.79
21781;BME280;52576;53.614;9.894;2023-08-07T05:44:27;100219.22;;;15.22;86.91
21781;BME280;52576;53.614;9.894;2023-08-07T05:46:31;100217.28;;;15.24;86.83
21781;BME280;52576;53.614;9.894;2023-08-07T05:48:34;100212.69;;;15.26;86.52
21781;BME280;52576;53.614;9.894;2023-08-07T05:50:38;100216.72;;;15.31;86.21
21781;BME280;52576;53.614;9.894;2023-08-07T05:52:41;100216.38;;;15.34;86.30
21781;BME280;52576;53.614;9.894;2023-08-07T05:54:44;100213.31;;;15.38;86.02
21781;BME280;52576;53.614;9.894;2023-08-07T05:56:47;100220.81;;;15.43;85.27
21781;BME280;52576;53.614;9.894;2023-08-07T05:58:50;100217.72;;;15.47;85.09
21781;BME280;52576;53.614;9.894;2023-08-07T06:00:53;100214.66;;;15.52;84.90
21781;BME280;52576;53.614;9.894;2023-08-07T06:02:56;100216.03;;;15.56;84.29
21781;BME280;52576;53.614;9.894;2023-08-07T06:05:00;100213.13;;;15.59;83.94
21781;BME280;52576;53.614;9.894;2023-08-07T06:07:04;100208.19;;;15.64;83.46
21781;BME280;52576;53.614;9.894;2023-08-07T06:09:07;100211.38;;;15.68;83.15
21781;BME280;52576;53.614;9.894;2023-08-07T06:11:10;100211.22;;;15.69;82.58
21781;BME280;52576;53.614;9.894;2023-08-07T06:13:13;100226.94;;;15.71;81.92
21781;BME280;52576;53.614;9.894;2023-08-07T06:15:35;100221.78;;;15.69;81.64
21781;BME280;52576;53.614;9.894;2023-08-07T06:17:38;100218.31;;;15.69;81.10
21781;BME280;52576;53.614;9.894;2023-08-07T06:19:42;100215.81;;;15.67;80.77
21781;BME280;52576;53.614;9.894;2023-08-07T06:21:45;100222.91;;;15.67;80.95
21781;BME280;52576;53.614;9.894;2023-08-07T06:23:48;100223.75;;;15.67;80.63
21781;BME280;52576;53.614;9.894;2023-08-07T06:25:51;100223.59;;;15.69;80.61
21781;BME280;52576;53.614;9.894;2023-08-07T06:28:00;100226.09;;;15.70;80.66
21781;BME280;52576;53.614;9.894;2023-08-07T06:30:03;100215.53;;;15.70;80.69
21781;BME280;52576;53.614;9.894;2023-08-07T06:32:06;100226.78;;;15.72;80.37
21781;BME280;52576;53.614;9.894;2023-08-07T06:34:10;100232.75;;;15.74;80.37
21781;BME280;52576;53.614;9.894;2023-08-07T06:36:15;100216.59;;;15.77;80.14
21781;BME280;52576;53.614;9.894;2023-08-07T06:38:18;100219.94;;;15.79;80.12
21781;BME280;52576;53.614;9.894;2023-08-07T06:40:20;100227.56;;;15.82;80.08
21781;BME280;52576;53.614;9.894;2023-08-07T06:42:23;100224.91;;;15.82;79.57
21781;BME280;52576;53.614;9.894;2023-08-07T06:44:26;100227.25;;;15.85;79.69
21781;BME280;52576;53.614;9.894;2023-08-07T06:46:29;100223.63;;;15.86;79.18
21781;BME280;52576;53.614;9.894;2023-08-07T06:48:32;100229.88;;;15.85;78.94
21781;BME280;52576;53.614;9.894;2023-08-07T06:50:35;100243.94;;;15.86;79.09
21781;BME280;52576;53.614;9.894;2023-08-07T06:52:39;100224.44;;;15.87;78.24
21781;BME280;52576;53.614;9.894;2023-08-07T06:54:42;100235.84;;;15.87;77.87
21781;BME280;52576;53.614;9.894;2023-08-07T06:56:45;100231.25;;;15.89;77.28
21781;BME280;52576;53.614;9.894;2023-08-07T06:58:48;100239.72;;;15.93;76.53
21781;BME280;52576;53.614;9.894;2023-08-07T07:00:51;100239.41;;;15.96;76.18
21781;BME280;52576;53.614;9.894;2023-08-07T07:02:55;100247.19;;;15.98;75.26
21781;BME280;52576;53.614;9.894;2023-08-07T07:04:57;100250.81;;;15.97;74.46
21781;BME280;52576;53.614;9.894;2023-08-07T07:07:00;100251.94;;;15.94;73.20
21781;BME280;52576;53.614;9.894;2023-08-07T07:09:04;100248.47;;;15.93;73.26
21781;BME280;52576;53.614;9.894;2023-08-07T07:11:07;100239.72;;;15.93;73.25
21781;BME280;52576;53.614;9.894;2023-08-07T07:13:11;100244.84;;;15.94;72.76
21781;BME280;52576;53.614;9.894;2023-08-07T07:15:15;100253.31;;;15.98;72.30
21781;BME280;52576;53.614;9.894;2023-08-07T07:17:18;100245.78;;;16.03;72.06
21781;BME280;52576;53.614;9.894;2023-08-07T07:19:21;100242.69;;;16.08;71.71
21781;BME280;52576;53.614;9.894;2023-08-07T07:21:24;100253.75;;;16.11;71.37
21781;BME280;52576;53.614;9.894;2023-08-07T07:23:28;100261.53;;;16.13;70.75
21781;BME280;52576;53.614;9.894;2023-08-07T07:25:32;100280.88;;;16.13;70.54
21781;BME280;52576;53.614;9.894;2023-08-07T07:27:35;100304.47;;;16.07;70.60
21781;BME280;52576;53.614;9.894;2023-08-07T07:29:37;100295.38;;;15.91;72.02
21781;BME280;52576;53.614;9.894;2023-08-07T07:31:40;100276.28;;;15.70;73.04
21781;BME280;52576;53.614;9.894;2023-08-07T07:33:43;100278.31;;;15.49;74.76
21781;BME280;52576;53.614;9.894;2023-08-07T07:35:48;100283.41;;;15.33;75.21
21781;BME280;52576;53.614;9.894;2023-08-07T07:37:51;100273.97;;;15.20;75.73
21781;BME280;52576;53.614;9.894;2023-08-07T07:39:54;100274.69;;;15.13;76.58
21781;BME280;52576;53.614;9.894;2023-08-07T07:41:57;100269.84;;;15.08;77.15
21781;BME280;52576;53.614;9.894;2023-08-07T07:44:00;100257.63;;;15.07;77.77
21781;BME280;52576;53.614;9.894;2023-08-07T07:46:04;100261.09;;;15.08;78.15
21781;BME280;52576;53.614;9.894;2023-08-07T07:48:07;100252.75;;;15.12;78.17
21781;BME280;52576;53.614;9.894;2023-08-07T07:50:11;100260.94;;;15.19;78.11
21781;BME280;52576;53.614;9.894;2023-08-07T07:52:16;100259.25;;;15.27;77.36
21781;BME280;52576;53.614;9.894;2023-08-07T07:54:19;100264.31;;;15.39;77.84
21781;BME280;52576;53.614;9.894;2023-08-07T07:56:22;100267.47;;;15.52;76.94
21781;BME280;52576;53.614;9.894;2023-08-07T07:58:26;100257.41;;;15.65;76.71
21781;BME280;52576;53.614;9.894;2023-08-07T08:00:29;100268.75;;;15.75;76.00
21781;BME280;52576;53.614;9.894;2023-08-07T08:02:32;100271.50;;;15.83;74.97
21781;BME280;52576;53.614;9.894;2023-08-07T08:04:35;100285.09;;;15.88;73.71
21781;BME280;52576;53.614;9.894;2023-08-07T08:06:40;100292.03;;;15.89;72.50
21781;BME280;52576;53.614;9.894;2023-08-07T08:08:43;100295.66;;;15.88;71.71
21781;BME280;52576;53.614;9.894;2023-08-07T08:10:46;100295.94;;;15.85;71.88
21781;BME280;52576;53.614;9.894;2023-08-07T08:12:49;100303.50;;;15.80;72.24
21781;BME280;52576;53.614;9.894;2023-08-07T08:14:54;100297.16;;;15.73;73.08
21781;BME280;52576;53.614;9.894;2023-08-07T08:16:57;100305.56;;;15.59;74.46
21781;BME280;52576;53.614;9.894;2023-08-07T08:19:00;100315.88;;;15.43;75.34
21781;BME280;52576;53.614;9.894;2023-08-07T08:21:04;100308.44;;;15.28;76.03
21781;BME280;52576;53.614;9.894;2023-08-07T08:23:08;100307.91;;;15.15;76.70
21781;BME280;52576;53.614;9.894;2023-08-07T08:25:11;100309.06;;;15.03;77.86
21781;BME280;52576;53.614;9.894;2023-08-07T08:27:14;100314.88;;;14.97;78.56
21781;BME280;52576;53.614;9.894;2023-08-07T08:29:19;100308.91;;;14.95;79.46
21781;BME280;52576;53.614;9.894;2023-08-07T08:31:23;100306.28;;;14.95;79.75
21781;BME280;52576;53.614;9.894;2023-08-07T08:33:27;100309.88;;;14.94;79.96
21781;BME280;52576;53.614;9.894;2023-08-07T08:35:29;100312.53;;;14.94;80.11
21781;BME280;52576;53.614;9.894;2023-08-07T08:37:32;100317.53;;;14.97;80.75
21781;BME280;52576;53.614;9.894;2023-08-07T08:39:35;100332.13;;;15.01;80.54
21781;BME280;52576;53.614;9.894;2023-08-07T08:41:39;100315.03;;;15.05;80.33
21781;BME280;52576;53.614;9.894;2023-08-07T08:43:43;100344.06;;;15.05;79.33
21781;BME280;52576;53.614;9.894;2023-08-07T08:45:48;100334.47;;;15.04;79.88
21781;BME280;52576;53.614;9.894;2023-08-07T08:47:54;100344.34;;;15.02;79.24
21781;BME280;52576;53.614;9.894;2023-08-07T08:50:00;100352.53;;;14.99;78.95
21781;BME280;52576;53.614;9.894;2023-08-07T08:52:05;100336.84;;;14.98;78.78
21781;BME280;52576;53.614;9.894;2023-08-07T08:54:09;100349.91;;;14.99;78.95
21781;BME280;52576;53.614;9.894;2023-08-07T08:56:13;100352.25;;;15.02;78.22
21781;BME280;52576;53.614;9.894;2023-08-07T08:58:17;100351.00;;;15.06;77.36
21781;BME280;52576;53.614;9.894;2023-08-07T09:00:21;100339.84;;;15.12;77.20
21781;BME280;52576;53.614;9.894;2023-08-07T09:02:27;100353.19;;;15.20;76.54
21781;BME280;52576;53.614;9.894;2023-08-07T09:04:32;100340.13;;;15.28;75.16
21781;BME280;52576;53.614;9.894;2023-08-07T09:06:35;100343.69;;;15.37;75.08
21781;BME280;52576;53.614;9.894;2023-08-07T09:08:41;100345.31;;;15.48;74.68
21781;BME280;52576;53.614;9.894;2023-08-07T09:10:45;100360.03;;;15.60;72.47
21781;BME280;52576;53.614;9.894;2023-08-07T09:12:53;100350.00;;;15.73;71.41
21781;BME280;52576;53.614;9.894;2023-08-07T09:14:57;100330.31;;;15.85;70.01
21781;BME280;52576;53.614;9.894;2023-08-07T09:17:01;100340.41;;;16.00;69.86
21781;BME280;52576;53.614;9.894;2023-08-07T09:19:04;100336.13;;;16.16;68.50
21781;BME280;52576;53.614;9.894;2023-08-07T09:21:09;100334.50;;;16.33;68.74
21781;BME280;52576;53.614;9.894;2023-08-07T09:23:14;100335.31;;;16.51;67.51
21781;BME280;52576;53.614;9.894;2023-08-07T09:25:26;100344.41;;;16.67;66.26
21781;BME280;52576;53.614;9.894;2023-08-07T09:27:30;100342.22;;;16.80;65.41
21781;BME280;52576;53.614;9.894;2023-08-07T09:29:33;100353.09;;;16.94;64.76
21781;BME280;52576;53.614;9.894;2023-08-07T09:31:37;100345.06;;;17.04;62.79
21781;BME280;52576;53.614;9.894;2023-08-07T09:33:40;100337.19;;;17.12;61.51
21781;BME280;52576;53.614;9.894;2023-08-07T09:35:45;100344.00;;;17.15;60.71
21781;BME280;52576;53.614;9.894;2023-08-07T09:37:49;100359.53;;;17.18;60.36
21781;BME280;52576;53.614;9.894;2023-08-07T09:39:53;100345.84;;;17.22;59.27
21781;BME280;52576;53.614;9.894;2023-08-07T09:41:56;100343.56;;;17.27;59.55
21781;BME280;52576;53.614;9.894;2023-08-07T09:44:06;100339.00;;;17.38;59.63
21781;BME280;52576;53.614;9.894;2023-08-07T09:46:09;100343.34;;;17.47;59.01
21781;BME280;52576;53.614;9.894;2023-08-07T09:48:13;100342.41;;;17.56;58.59
21781;BME280;52576;53.614;9.894;2023-08-07T09:50:17;100349.09;;;17.68;57.84
21781;BME280;52576;53.614;9.894;2023-08-07T09:52:20;100345.50;;;17.77;56.86
21781;BME280;52576;53.614;9.894;2023-08-07T09:54:24;100373.06;;;17.84;55.92
21781;BME280;52576;53.614;9.894;2023-08-07T09:56:28;100363.81;;;17.88;55.49
21781;BME280;52576;53.614;9.894;2023-08-07T09:58:31;100370.78;;;17.89;55.21
21781;BME280;52576;53.614;9.894;2023-08-07T10:00:35;100356.84;;;17.87;55.35
21781;BME280;52576;53.614;9.894;2023-08-07T10:02:39;100367.59;;;17.86;55.29
21781;BME280;52576;53.614;9.894;2023-08-07T10:04:42;100365.09;;;17.84;54.94
21781;BME280;52576;53.614;9.894;2023-08-07T10:06:46;100369.72;;;17.82;54.90
21781;BME280;52576;53.614;9.894;2023-08-07T10:08:49;100366.41;;;17.80;54.87
21781;BME280;52576;53.614;9.894;2023-08-07T10:10:54;100361.56;;;17.76;54.30
21781;BME280;52576;53.614;9.894;2023-08-07T10:12:59;100376.59;;;17.67;54.67
21781;BME280;52576;53.614;9.894;2023-08-07T10:15:03;100384.03;;;17.63;54.77
21781;BME280;52576;53.614;9.894;2023-08-07T10:17:07;100374.97;;;17.66;54.21
21781;BME280;52576;53.614;9.894;2023-08-07T10:19:10;100376.28;;;17.70;53.77
21781;BME280;52576;53.614;9.894;2023-08-07T10:21:13;100380.91;;;17.68;54.04
21781;BME280;52576;53.614;9.894;2023-08-07T10:23:17;100370.50;;;17.67;54.07
21781;BME280;52576;53.614;9.894;2023-08-07T10:25:21;100366.00;;;17.67;54.71
21781;BME280;52576;53.614;9.894;2023-08-07T10:27:27;100366.00;;;17.67;55.04
21781;BME280;52576;53.614;9.894;2023-08-07T10:29:32;100360.06;;;17.65;55.00
21781;BME280;52576;53.614;9.894;2023-08-07T10:31:36;100380.53;;;17.63;54.95
21781;BME280;52576;53.614;9.894;2023-08-07T10:33:41;100379.19;;;17.59;55.65
21781;BME280;52576;53.614;9.894;2023-08-07T10:35:45;100378.69;;;17.55;55.17
21781;BME280;52576;53.614;9.894;2023-08-07T10:37:50;100373.53;;;17.54;56.02
21781;BME280;52576;53.614;9.894;2023-08-07T10:40:03;100355.66;;;17.56;55.42
21781;BME280;52576;53.614;9.894;2023-08-07T10:42:07;100378.38;;;17.58;55.41
21781;BME280;52576;53.614;9.894;2023-08-07T10:44:21;100352.38;;;17.62;54.98
21781;BME280;52576;53.614;9.894;2023-08-07T10:46:25;100369.66;;;17.66;55.17
21781;BME280;52576;53.614;9.894;2023-08-07T10:48:28;100371.50;;;17.74;54.95